Terminal Aerodrome Forecast
Issued by NWS

Home | Current Version | Previous Version | Text Only | Print | Product List | Glossary On
Versions: 1 2 3 4 5 6 7 8 9 10 11 12 13 14 15 16 17 18 19 20 21 22 23 24 25 26 27 28 29
000
FTUS41 KOKX 101400 AAA
TAFSWF
TAF AMD
KSWF 101431Z 1015/1118 06010KT P6SM SCT050 SCT250
     FM101800 06008KT P6SM VCSH BKN050
     FM102300 VRB03KT P6SM FEW050 SCT120 SCT250
     FM110400 VRB03KT P6SM FEW008 FEW050 SCT120
      AMD NOT SKED=

USA.gov is the U.S. government's official web portal to all federal, state and local government web resources and services.